Time;durP1;ratioP1;P1;durP2;ratioP2;P2;SDS_P1;SDS_P2;PMS_P1;PMS_P2;Temp;Humidity;BMP_temperature;BMP_pressure;BME280_temperature;BME280_humidity;BME280_pressure;Samples;Min_cycle;Max_cycle;Signal;HPM_P1;HPM_P2
2021/01/07 00:01:47;;;;;;;;;;;5.00;81.50;;;;;;5036525;28;20319;-76
2021/01/07 00:04:14;;;;;;;;;;;5.00;81.50;;;;;;5041592;28;19948;-76
2021/01/07 00:06:39;;;;;;;;;;;5.00;81.50;;;;;;5021581;28;19908;-76
2021/01/07 00:09:05;;;;;;;;;;;4.90;81.50;;;;;;5053561;28;20432;-79
2021/01/07 00:11:30;;;;;;;;;;;4.90;81.50;;;;;;5044912;28;20415;-76
2021/01/07 00:13:56;;;;;;;;;;;4.90;81.50;;;;;;5021146;28;20387;-77
2021/01/07 00:16:22;;;;;;;;;;;4.90;81.50;;;;;;5024154;28;19992;-77
2021/01/07 00:18:47;;;;;;;;;;;4.90;81.50;;;;;;5032720;28;19913;-76
2021/01/07 00:21:13;;;;;;;;;;;4.90;81.50;;;;;;5047311;28;19912;-76
2021/01/07 00:23:39;;;;;;;;;;;4.90;82.10;;;;;;5047025;28;19920;-77
2021/01/07 00:26:04;;;;;;;;;;;4.90;81.50;;;;;;5019216;28;20281;-76
2021/01/07 00:28:30;;;;;;;;;;;4.90;81.50;;;;;;5052603;28;19917;-77
2021/01/07 00:30:55;;;;;;;;;;;4.90;81.50;;;;;;5035822;28;19909;-77
2021/01/07 00:33:21;;;;;;;;;;;4.90;81.50;;;;;;5032515;28;20418;-76
2021/01/07 00:35:47;;;;;;;;;;;4.90;81.50;;;;;;5017518;28;19909;-76
2021/01/07 00:38:12;;;;;;;;;;;4.90;81.50;;;;;;5053398;28;19908;-76
2021/01/07 00:40:38;;;;;;;;;;;4.80;81.50;;;;;;5035954;28;19908;-76
2021/01/07 00:43:04;;;;;;;;;;;4.80;81.50;;;;;;5045639;28;19916;-77
2021/01/07 00:45:30;;;;;;;;;;;4.80;81.50;;;;;;5040928;28;20367;-77
2021/01/07 00:47:56;;;;;;;;;;;4.80;81.50;;;;;;5049219;28;19928;-76
2021/01/07 00:50:22;;;;;;;;;;;4.80;81.50;;;;;;5058519;28;19909;-76
2021/01/07 00:52:48;;;;;;;;;;;4.80;81.50;;;;;;5027796;28;19917;-76
2021/01/07 00:55:15;;;;;;;;;;;4.80;82.10;;;;;;5015571;28;19916;-76
2021/01/07 00:57:42;;;;;;;;;;;4.80;81.50;;;;;;5046414;28;20353;-76
2021/01/07 01:00:08;;;;;;;;;;;4.80;81.50;;;;;;5033622;28;19905;-76
2021/01/07 01:02:34;;;;;;;;;;;4.80;81.50;;;;;;5040082;28;19909;-76
2021/01/07 01:04:59;;;;;;;;;;;4.80;81.50;;;;;;5044858;28;19959;-77
2021/01/07 01:07:25;;;;;;;;;;;4.70;81.50;;;;;;5041969;28;19913;-76
2021/01/07 01:09:51;;;;;;;;;;;4.80;81.50;;;;;;5049503;28;19917;-76
2021/01/07 01:12:17;;;;;;;;;;;4.70;81.50;;;;;;5029053;28;20412;-76
2021/01/07 01:14:42;;;;;;;;;;;4.70;81.50;;;;;;5051709;28;19909;-80
2021/01/07 01:17:08;;;;;;;;;;;4.70;81.50;;;;;;5032227;28;19909;-77
2021/01/07 01:19:33;;;;;;;;;;;4.70;81.50;;;;;;5035642;28;19909;-75
2021/01/07 01:21:59;;;;;;;;;;;4.70;81.50;;;;;;5029460;28;19913;-76
2021/01/07 01:24:25;;;;;;;;;;;4.70;81.50;;;;;;5038195;28;19913;-76
2021/01/07 01:26:54;;;;;;;;;;;4.70;81.50;;;;;;5051357;28;19919;-76
2021/01/07 01:29:20;;;;;;;;;;;4.70;81.50;;;;;;5043997;28;19909;-76
2021/01/07 01:31:46;;;;;;;;;;;4.70;81.50;;;;;;5034888;28;19920;-77
2021/01/07 01:34:11;;;;;;;;;;;4.70;81.50;;;;;;5048402;28;19909;-75
2021/01/07 01:36:37;;;;;;;;;;;4.70;81.50;;;;;;5041006;28;20280;-76
2021/01/07 01:39:03;;;;;;;;;;;4.70;81.50;;;;;;5028476;28;20373;-76
2021/01/07 01:41:28;;;;;;;;;;;4.60;81.50;;;;;;5050630;28;19915;-76
2021/01/07 01:43:54;;;;;;;;;;;4.70;81.50;;;;;;5051407;28;19956;-77
2021/01/07 01:46:20;;;;;;;;;;;4.70;81.50;;;;;;5033526;28;19920;-77
2021/01/07 01:48:45;;;;;;;;;;;4.70;81.50;;;;;;5051472;28;19978;-76
2021/01/07 01:51:11;;;;;;;;;;;4.60;81.40;;;;;;5045544;28;19913;-76
2021/01/07 01:53:38;;;;;;;;;;;4.60;81.40;;;;;;5042165;28;19920;-77
2021/01/07 01:56:04;;;;;;;;;;;4.60;81.40;;;;;;5030598;28;19948;-80
2021/01/07 01:58:30;;;;;;;;;;;4.60;81.40;;;;;;5050972;28;19909;-76
2021/01/07 02:00:55;;;;;;;;;;;4.70;81.50;;;;;;5034586;28;19912;-78
2021/01/07 02:03:21;;;;;;;;;;;4.60;81.40;;;;;;5036371;28;19964;-76
2021/01/07 02:05:47;;;;;;;;;;;4.60;81.40;;;;;;5049011;28;19908;-77
2021/01/07 02:08:13;;;;;;;;;;;4.60;81.40;;;;;;5039115;28;20129;-76
2021/01/07 02:10:39;;;;;;;;;;;4.60;81.40;;;;;;5042592;28;19934;-77
2021/01/07 02:13:06;;;;;;;;;;;4.60;81.40;;;;;;5045848;28;19912;-76
2021/01/07 02:15:37;;;;;;;;;;;4.60;81.40;;;;;;5048443;28;19916;-76
2021/01/07 02:18:03;;;;;;;;;;;4.60;81.40;;;;;;5048764;28;20396;-76
2021/01/07 02:20:29;;;;;;;;;;;4.60;81.40;;;;;;5038422;28;19909;-77
2021/01/07 02:22:55;;;;;;;;;;;4.60;81.40;;;;;;5047530;28;19948;-77
2021/01/07 02:25:21;;;;;;;;;;;4.60;81.40;;;;;;5038132;28;19911;-76
2021/01/07 02:27:47;;;;;;;;;;;4.60;81.40;;;;;;5018790;28;20010;-76
2021/01/07 02:30:13;;;;;;;;;;;4.60;81.40;;;;;;5002535;28;19945;-76
2021/01/07 02:32:39;;;;;;;;;;;4.60;81.40;;;;;;5017991;28;19913;-77
2021/01/07 02:35:05;;;;;;;;;;;4.60;81.40;;;;;;5036094;28;19909;-76
2021/01/07 02:37:30;;;;;;;;;;;4.60;81.40;;;;;;5032524;28;19963;-77
2021/01/07 02:39:56;;;;;;;;;;;4.60;81.40;;;;;;5037147;28;19912;-76
2021/01/07 02:42:24;;;;;;;;;;;4.60;81.40;;;;;;5007655;28;19913;-76
2021/01/07 02:44:49;;;;;;;;;;;4.60;81.40;;;;;;5038054;28;19935;-77
2021/01/07 02:47:15;;;;;;;;;;;4.60;81.40;;;;;;5054874;28;19913;-76
2021/01/07 02:49:41;;;;;;;;;;;4.60;81.40;;;;;;5004643;28;20321;-76
2021/01/07 02:52:06;;;;;;;;;;;4.60;81.40;;;;;;5018281;28;19913;-76
2021/01/07 02:54:32;;;;;;;;;;;4.60;81.40;;;;;;5042563;28;19920;-75
2021/01/07 02:56:58;;;;;;;;;;;4.60;81.40;;;;;;5040743;28;19921;-76
2021/01/07 02:59:24;;;;;;;;;;;4.60;81.40;;;;;;5048610;28;20328;-82
2021/01/07 03:01:49;;;;;;;;;;;4.60;81.40;;;;;;5054319;28;19913;-77
2021/01/07 03:04:15;;;;;;;;;;;4.60;81.40;;;;;;5050648;28;19954;-76
2021/01/07 03:06:41;;;;;;;;;;;4.60;81.40;;;;;;5050069;28;20888;-76
2021/01/07 03:09:06;;;;;;;;;;;4.60;81.40;;;;;;5014045;28;20016;-76
2021/01/07 03:11:33;;;;;;;;;;;4.60;81.30;;;;;;5032330;28;19913;-76
2021/01/07 03:13:59;;;;;;;;;;;4.60;82.00;;;;;;5022967;28;19939;-76
2021/01/07 03:16:24;;;;;;;;;;;4.60;81.40;;;;;;5034301;28;20375;-77
2021/01/07 03:18:50;;;;;;;;;;;4.60;81.30;;;;;;5041068;28;19943;-76
2021/01/07 03:21:16;;;;;;;;;;;4.60;81.90;;;;;;5037614;28;19913;-76
2021/01/07 03:23:41;;;;;;;;;;;4.60;81.30;;;;;;5048761;28;19904;-75
2021/01/07 03:26:07;;;;;;;;;;;4.60;81.30;;;;;;5051918;28;19955;-76
2021/01/07 03:28:32;;;;;;;;;;;4.60;81.30;;;;;;5037359;28;19915;-78
2021/01/07 03:30:58;;;;;;;;;;;4.60;81.40;;;;;;5037491;28;20305;-76
2021/01/07 03:33:23;;;;;;;;;;;4.60;81.30;;;;;;5020242;28;19917;-79
2021/01/07 03:35:49;;;;;;;;;;;4.60;81.30;;;;;;5057545;28;19954;-76
2021/01/07 03:38:15;;;;;;;;;;;4.60;81.30;;;;;;5034121;28;19915;-76
2021/01/07 03:40:40;;;;;;;;;;;4.60;81.30;;;;;;5034030;28;19978;-76
2021/01/07 03:43:06;;;;;;;;;;;4.60;81.30;;;;;;5029076;28;19987;-76
2021/01/07 03:45:32;;;;;;;;;;;4.60;81.30;;;;;;5034519;28;19906;-76
2021/01/07 03:47:57;;;;;;;;;;;4.70;81.40;;;;;;5033811;28;19921;-76
2021/01/07 03:50:23;;;;;;;;;;;4.60;81.30;;;;;;5037979;28;20318;-79
2021/01/07 03:52:49;;;;;;;;;;;4.60;81.30;;;;;;5040602;28;19920;-77
2021/01/07 03:55:14;;;;;;;;;;;4.60;81.30;;;;;;5030907;28;19917;-76
2021/01/07 03:57:40;;;;;;;;;;;4.70;81.40;;;;;;5033508;28;19913;-75
2021/01/07 04:00:06;;;;;;;;;;;4.70;81.40;;;;;;5048586;28;19908;-76
2021/01/07 04:02:31;;;;;;;;;;;4.70;81.40;;;;;;5053263;28;19909;-77
2021/01/07 04:04:57;;;;;;;;;;;4.70;81.40;;;;;;5049955;28;19904;-76
2021/01/07 04:07:23;;;;;;;;;;;4.70;81.40;;;;;;5051848;28;19917;-75
2021/01/07 04:09:48;;;;;;;;;;;4.70;81.40;;;;;;5049356;28;20257;-76
2021/01/07 04:12:14;;;;;;;;;;;4.70;81.40;;;;;;5026813;28;20327;-76
2021/01/07 04:14:39;;;;;;;;;;;4.70;81.30;;;;;;5032889;28;19909;-77
2021/01/07 04:17:05;;;;;;;;;;;4.70;81.30;;;;;;5035621;28;20380;-77
2021/01/07 04:19:31;;;;;;;;;;;4.70;81.40;;;;;;5051903;28;19924;-76
2021/01/07 04:21:56;;;;;;;;;;;4.70;81.30;;;;;;5039658;28;19913;-76
2021/01/07 04:24:22;;;;;;;;;;;4.70;81.30;;;;;;5035349;28;19913;-77
2021/01/07 04:26:47;;;;;;;;;;;4.70;81.30;;;;;;5034487;28;19974;-76
2021/01/07 04:29:13;;;;;;;;;;;4.70;81.30;;;;;;5035277;28;19912;-77
2021/01/07 04:31:39;;;;;;;;;;;4.70;81.30;;;;;;5037966;28;19940;-77
2021/01/07 04:34:05;;;;;;;;;;;4.70;81.30;;;;;;5016681;28;19909;-76
2021/01/07 04:36:31;;;;;;;;;;;4.70;81.30;;;;;;5016255;28;20277;-77
2021/01/07 04:38:57;;;;;;;;;;;4.70;81.30;;;;;;5016406;28;20000;-78
2021/01/07 04:41:23;;;;;;;;;;;4.70;81.40;;;;;;5034235;28;20415;-76
2021/01/07 04:43:58;;;;;;;;;;;4.70;81.30;;;;;;5042323;28;19909;-76
2021/01/07 04:46:24;;;;;;;;;;;4.70;81.30;;;;;;5033149;28;19909;-76
2021/01/07 04:48:50;;;;;;;;;;;4.70;81.30;;;;;;5032427;28;20681;-76
2021/01/07 04:51:16;;;;;;;;;;;4.70;81.40;;;;;;5042438;28;19995;-77
2021/01/07 04:53:42;;;;;;;;;;;4.70;81.30;;;;;;5032039;28;20362;-76
2021/01/07 04:56:08;;;;;;;;;;;4.70;81.30;;;;;;5033015;28;19945;-76
2021/01/07 04:58:33;;;;;;;;;;;4.70;81.40;;;;;;4999511;28;19912;-77
2021/01/07 05:00:59;;;;;;;;;;;4.70;81.30;;;;;;5033681;28;20376;-77
2021/01/07 05:03:28;;;;;;;;;;;4.70;81.30;;;;;;5033313;28;19920;-77
2021/01/07 05:05:54;;;;;;;;;;;4.70;81.40;;;;;;5055489;28;19919;-77
2021/01/07 05:08:20;;;;;;;;;;;4.70;81.30;;;;;;5017080;28;19917;-76
2021/01/07 05:10:46;;;;;;;;;;;4.70;81.30;;;;;;5051035;28;19913;-75
2021/01/07 05:13:12;;;;;;;;;;;4.70;81.30;;;;;;5016810;28;19905;-77
2021/01/07 05:15:39;;;;;;;;;;;4.70;81.30;;;;;;5032917;28;19920;-76
2021/01/07 05:18:04;;;;;;;;;;;4.70;81.30;;;;;;5003132;28;19912;-76
2021/01/07 05:20:30;;;;;;;;;;;4.70;81.30;;;;;;5042300;28;19963;-77
2021/01/07 05:22:58;;;;;;;;;;;4.70;81.40;;;;;;5028654;28;20421;-77
2021/01/07 05:25:24;;;;;;;;;;;4.70;81.30;;;;;;5034614;28;20334;-76
2021/01/07 05:27:50;;;;;;;;;;;4.70;81.30;;;;;;5051239;28;20355;-76
2021/01/07 05:30:15;;;;;;;;;;;4.70;81.30;;;;;;5044606;28;19955;-77
2021/01/07 05:32:42;;;;;;;;;;;4.70;81.30;;;;;;5048173;28;19927;-76
2021/01/07 05:35:19;;;;;;;;;;;4.70;81.30;;;;;;5047666;28;19916;-76
2021/01/07 05:37:45;;;;;;;;;;;4.70;81.30;;;;;;5038383;28;19956;-76
2021/01/07 05:40:10;;;;;;;;;;;4.80;81.40;;;;;;5025386;28;19975;-76
2021/01/07 05:42:41;;;;;;;;;;;4.70;81.30;;;;;;5032248;28;19913;-79
2021/01/07 05:45:08;;;;;;;;;;;4.70;81.30;;;;;;5037795;28;20384;-76
2021/01/07 05:47:37;;;;;;;;;;;4.70;81.30;;;;;;5034320;28;19917;-78
2021/01/07 05:50:04;;;;;;;;;;;4.70;81.30;;;;;;5058080;28;20424;-76
2021/01/07 05:52:32;;;;;;;;;;;4.70;81.30;;;;;;5051729;28;19928;-77
2021/01/07 05:54:58;;;;;;;;;;;4.70;81.30;;;;;;5040363;28;19913;-80
2021/01/07 05:57:25;;;;;;;;;;;4.70;81.40;;;;;;5034891;28;19913;-77
2021/01/07 05:59:51;;;;;;;;;;;4.70;81.30;;;;;;5034764;28;19931;-77
2021/01/07 06:02:17;;;;;;;;;;;4.70;81.40;;;;;;5034741;28;20337;-76
2021/01/07 06:04:44;;;;;;;;;;;4.70;81.30;;;;;;5047218;28;19912;-76
2021/01/07 06:07:10;;;;;;;;;;;4.80;81.40;;;;;;5042325;28;20420;-76
2021/01/07 06:09:36;;;;;;;;;;;4.70;81.30;;;;;;5042583;28;19913;-76
2021/01/07 06:12:02;;;;;;;;;;;4.80;81.40;;;;;;5041400;28;20008;-77
2021/01/07 06:14:28;;;;;;;;;;;4.70;81.40;;;;;;5046101;28;19913;-76
2021/01/07 06:16:54;;;;;;;;;;;4.70;81.30;;;;;;5046891;28;20349;-76
2021/01/07 06:19:37;;;;;;;;;;;4.80;81.40;;;;;;5049669;28;19908;-76
2021/01/07 06:22:13;;;;;;;;;;;4.80;81.40;;;;;;5043603;28;19913;-75
2021/01/07 06:24:40;;;;;;;;;;;4.80;81.40;;;;;;5035989;28;20393;-76
2021/01/07 06:27:25;;;;;;;;;;;4.80;81.40;;;;;;5045759;28;19952;-76
2021/01/07 06:29:56;;;;;;;;;;;4.80;81.40;;;;;;5031611;28;19909;-76
2021/01/07 06:32:23;;;;;;;;;;;4.80;81.40;;;;;;5052505;28;19909;-75
2021/01/07 06:34:50;;;;;;;;;;;4.80;81.40;;;;;;5050752;28;20368;-75
2021/01/07 06:37:49;;;;;;;;;;;4.80;81.40;;;;;;5050416;28;19908;-76
2021/01/07 06:40:15;;;;;;;;;;;4.80;81.40;;;;;;5018122;28;19913;-75
2021/01/07 06:42:48;;;;;;;;;;;4.80;81.40;;;;;;5050804;28;19915;-76
2021/01/07 06:45:14;;;;;;;;;;;4.80;81.40;;;;;;5046035;28;19909;-75
2021/01/07 06:47:41;;;;;;;;;;;4.80;81.40;;;;;;5041002;28;20365;-78
2021/01/07 06:50:06;;;;;;;;;;;4.80;81.40;;;;;;5040154;28;19913;-76
2021/01/07 06:52:42;;;;;;;;;;;4.80;81.40;;;;;;5054878;28;19909;-76
2021/01/07 06:55:12;;;;;;;;;;;4.80;81.40;;;;;;5052651;28;19912;-75
2021/01/07 06:57:48;;;;;;;;;;;4.80;81.40;;;;;;5040574;28;19940;-76
2021/01/07 07:00:14;;;;;;;;;;;4.80;81.40;;;;;;5051375;28;19916;-75
2021/01/07 07:02:55;;;;;;;;;;;4.80;81.40;;;;;;5054877;28;19908;-75
2021/01/07 07:05:21;;;;;;;;;;;4.80;81.40;;;;;;5052875;28;19908;-76
2021/01/07 07:07:50;;;;;;;;;;;4.80;81.40;;;;;;5041728;28;19913;-76
2021/01/07 07:10:19;;;;;;;;;;;4.80;81.40;;;;;;5055113;28;19909;-78
2021/01/07 07:12:54;;;;;;;;;;;4.80;81.40;;;;;;5053728;28;19908;-76
2021/01/07 07:15:22;;;;;;;;;;;4.80;81.40;;;;;;5052189;28;19951;-76
2021/01/07 07:17:49;;;;;;;;;;;4.80;81.40;;;;;;5033863;28;19905;-75
2021/01/07 07:20:18;;;;;;;;;;;4.80;81.40;;;;;;5034441;28;19920;-75
2021/01/07 07:22:44;;;;;;;;;;;4.80;81.40;;;;;;5034346;28;20456;-80
2021/01/07 07:25:10;;;;;;;;;;;4.80;81.30;;;;;;5045972;28;19944;-76
2021/01/07 07:27:49;;;;;;;;;;;4.80;81.30;;;;;;5055068;28;19960;-75
2021/01/07 07:30:24;;;;;;;;;;;4.80;81.30;;;;;;5055183;28;19924;-75
2021/01/07 07:32:50;;;;;;;;;;;4.80;81.40;;;;;;5050792;28;19963;-76
2021/01/07 07:35:43;;;;;;;;;;;4.80;81.40;;;;;;5043596;28;19964;-76
2021/01/07 07:38:09;;;;;;;;;;;4.80;81.30;;;;;;5047986;28;19909;-76
2021/01/07 07:40:36;;;;;;;;;;;4.80;81.30;;;;;;5033662;28;19979;-76
2021/01/07 07:43:03;;;;;;;;;;;4.80;81.30;;;;;;5034674;28;19909;-74
2021/01/07 07:45:30;;;;;;;;;;;4.80;81.30;;;;;;5047556;28;20353;-76
2021/01/07 07:47:56;;;;;;;;;;;4.90;81.40;;;;;;5052479;28;20368;-75
2021/01/07 07:50:29;;;;;;;;;;;4.90;81.40;;;;;;5034516;28;19965;-74
2021/01/07 07:53:04;;;;;;;;;;;4.80;81.30;;;;;;5038732;28;19924;-75
2021/01/07 07:55:34;;;;;;;;;;;4.90;81.40;;;;;;5034043;28;19975;-74
2021/01/07 07:58:06;;;;;;;;;;;4.90;81.40;;;;;;5046679;28;19913;-75
2021/01/07 08:00:32;;;;;;;;;;;4.80;81.30;;;;;;5049926;28;19909;-74
2021/01/07 08:02:58;;;;;;;;;;;4.90;81.40;;;;;;5033081;28;20103;-74
2021/01/07 08:05:30;;;;;;;;;;;4.90;81.40;;;;;;5044112;28;19963;-76
2021/01/07 08:07:56;;;;;;;;;;;4.90;81.40;;;;;;5051370;28;19920;-74
2021/01/07 08:10:22;;;;;;;;;;;4.90;81.40;;;;;;5021070;28;20323;-74
2021/01/07 08:12:49;;;;;;;;;;;4.80;81.40;;;;;;5035884;28;19919;-79
2021/01/07 08:15:34;;;;;;;;;;;4.90;81.40;;;;;;5049405;28;19919;-74
2021/01/07 08:18:13;;;;;;;;;;;4.80;81.40;;;;;;5049276;28;19909;-74
2021/01/07 08:20:38;;;;;;;;;;;4.90;81.40;;;;;;5051930;28;19966;-74
2021/01/07 08:23:07;;;;;;;;;;;4.90;81.40;;;;;;5046404;28;19998;-74
2021/01/07 08:25:33;;;;;;;;;;;4.90;81.40;;;;;;5053947;28;19940;-74
2021/01/07 08:28:00;;;;;;;;;;;4.90;81.40;;;;;;5047462;28;19956;-74
2021/01/07 08:30:26;;;;;;;;;;;4.90;81.40;;;;;;5053705;28;19916;-74
2021/01/07 08:32:55;;;;;;;;;;;4.90;81.40;;;;;;5052458;28;19905;-74
2021/01/07 08:35:20;;;;;;;;;;;4.90;81.40;;;;;;5052539;28;19908;-74
2021/01/07 08:37:46;;;;;;;;;;;4.90;81.30;;;;;;5050972;28;20380;-74
2021/01/07 08:40:12;;;;;;;;;;;4.90;81.40;;;;;;5047278;28;20412;-74
2021/01/07 08:42:38;;;;;;;;;;;4.90;81.30;;;;;;5042490;28;19912;-74
2021/01/07 08:45:05;;;;;;;;;;;4.90;81.30;;;;;;5049285;28;19912;-74
2021/01/07 08:47:30;;;;;;;;;;;4.90;81.30;;;;;;5053650;28;19938;-74
2021/01/07 08:50:13;;;;;;;;;;;4.90;81.30;;;;;;5049005;28;19963;-74
2021/01/07 08:52:48;;;;;;;;;;;5.00;81.40;;;;;;5032337;28;19980;-74
2021/01/07 08:55:14;;;;;;;;;;;4.90;81.30;;;;;;5034907;28;19999;-74
2021/01/07 08:57:39;;;;;;;;;;;4.90;81.30;;;;;;5045872;28;19999;-73
2021/01/07 09:00:18;;;;;;;;;;;4.90;81.30;;;;;;5051018;28;19917;-75
2021/01/07 09:02:44;;;;;;;;;;;4.90;81.40;;;;;;5048909;28;19995;-76
2021/01/07 09:05:10;;;;;;;;;;;5.00;81.40;;;;;;5031996;28;20384;-75
2021/01/07 09:07:35;;;;;;;;;;;5.00;81.30;;;;;;5032247;28;19956;-75
2021/01/07 09:10:01;;;;;;;;;;;5.00;81.30;;;;;;5047571;28;19998;-75
2021/01/07 09:12:26;;;;;;;;;;;5.00;81.30;;;;;;5051545;28;20356;-75
2021/01/07 09:15:04;;;;;;;;;;;5.00;81.30;;;;;;5035514;28;19955;-76
2021/01/07 09:17:52;;;;;;;;;;;5.00;81.30;;;;;;5040651;28;20023;-74
2021/01/07 09:20:19;;;;;;;;;;;5.00;81.40;;;;;;5043202;28;19916;-75
2021/01/07 09:22:45;;;;;;;;;;;5.00;81.30;;;;;;5037469;28;19932;-76
2021/01/07 09:25:18;;;;;;;;;;;5.00;81.30;;;;;;5052390;28;19916;-75
2021/01/07 09:27:44;;;;;;;;;;;5.00;81.30;;;;;;5038457;28;20071;-75
2021/01/07 09:30:10;;;;;;;;;;;5.10;81.40;;;;;;5052916;28;19911;-75
2021/01/07 09:32:36;;;;;;;;;;;5.00;81.30;;;;;;5044879;28;20446;-76
2021/01/07 09:35:02;;;;;;;;;;;5.00;81.90;;;;;;5045722;28;19956;-76
2021/01/07 09:37:28;;;;;;;;;;;5.00;81.30;;;;;;5017729;28;19913;-74
2021/01/07 09:39:55;;;;;;;;;;;5.00;81.30;;;;;;5033239;28;19909;-75
2021/01/07 09:42:21;;;;;;;;;;;5.10;81.30;;;;;;5048281;28;19915;-75
2021/01/07 09:44:48;;;;;;;;;;;5.10;81.30;;;;;;5045253;28;19909;-75
2021/01/07 09:47:14;;;;;;;;;;;5.10;81.30;;;;;;5051547;28;19967;-77
2021/01/07 09:49:40;;;;;;;;;;;5.10;81.30;;;;;;5037675;28;19948;-76
2021/01/07 09:52:05;;;;;;;;;;;5.10;81.30;;;;;;5040971;28;19913;-77
2021/01/07 09:54:31;;;;;;;;;;;5.10;81.30;;;;;;5036206;28;19921;-79
2021/01/07 09:56:58;;;;;;;;;;;5.10;81.30;;;;;;5040168;28;19915;-79
2021/01/07 09:59:24;;;;;;;;;;;5.10;81.30;;;;;;5050812;28;20406;-80
2021/01/07 10:01:53;;;;;;;;;;;5.20;81.40;;;;;;5050052;28;19916;-83
2021/01/07 10:04:20;;;;;;;;;;;5.20;81.40;;;;;;5033279;28;19932;-78
2021/01/07 10:06:46;;;;;;;;;;;5.20;81.40;;;;;;5032372;28;19925;-80
2021/01/07 10:09:11;;;;;;;;;;;5.20;81.30;;;;;;5032434;28;19987;-74
2021/01/07 10:11:37;;;;;;;;;;;5.20;81.40;;;;;;5044699;28;19912;-81
2021/01/07 10:14:03;;;;;;;;;;;5.20;81.30;;;;;;5050895;28;19908;-75
2021/01/07 10:16:28;;;;;;;;;;;5.20;81.30;;;;;;5034800;28;19912;-74
2021/01/07 10:18:54;;;;;;;;;;;5.20;81.30;;;;;;5051851;28;19912;-75
2021/01/07 10:21:22;;;;;;;;;;;5.20;81.40;;;;;;5051924;28;19955;-73
2021/01/07 10:23:48;;;;;;;;;;;5.20;81.40;;;;;;5054562;28;19905;-74
2021/01/07 10:26:17;;;;;;;;;;;5.20;81.40;;;;;;5056200;28;19908;-75
2021/01/07 10:28:45;;;;;;;;;;;5.30;81.40;;;;;;5054959;28;19917;-76
2021/01/07 10:31:12;;;;;;;;;;;5.20;81.40;;;;;;5041652;28;19909;-77
2021/01/07 10:33:38;;;;;;;;;;;5.20;81.40;;;;;;5038610;28;20316;-75
2021/01/07 10:36:04;;;;;;;;;;;5.30;81.40;;;;;;5055767;28;19912;-76
2021/01/07 10:38:31;;;;;;;;;;;5.30;81.40;;;;;;5055004;28;19931;-76
2021/01/07 10:40:58;;;;;;;;;;;5.30;81.40;;;;;;5054351;28;19943;-77
2021/01/07 10:43:24;;;;;;;;;;;5.30;81.40;;;;;;5055948;28;19959;-74
2021/01/07 10:45:51;;;;;;;;;;;5.30;81.40;;;;;;5033293;28;19912;-75
2021/01/07 10:48:18;;;;;;;;;;;5.30;81.40;;;;;;5041320;28;20483;-76
2021/01/07 10:50:44;;;;;;;;;;;5.30;81.30;;;;;;5044600;28;20416;-77
2021/01/07 10:53:43;;;;;;;;;;;5.40;81.40;;;;;;5051475;28;19995;-77
2021/01/07 10:56:21;;;;;;;;;;;5.30;81.30;;;;;;5008193;28;19909;-76
2021/01/07 10:59:07;;;;;;;;;;;5.40;81.40;;;;;;5042791;28;19923;-77
2021/01/07 11:01:41;;;;;;;;;;;5.40;81.40;;;;;;5037719;28;19908;-77
2021/01/07 11:04:21;;;;;;;;;;;5.40;81.30;;;;;;5054300;28;19951;-76
2021/01/07 11:06:50;;;;;;;;;;;5.40;81.90;;;;;;5055240;28;19967;-83
2021/01/07 11:09:17;;;;;;;;;;;5.40;81.30;;;;;;5048605;28;20007;-76
2021/01/07 11:11:45;;;;;;;;;;;5.50;81.30;;;;;;5024327;28;19909;-76
2021/01/07 11:14:13;;;;;;;;;;;5.50;81.30;;;;;;5025144;28;19909;-77
2021/01/07 11:16:50;;;;;;;;;;;5.50;81.30;;;;;;5034615;28;19963;-75
2021/01/07 11:19:26;;;;;;;;;;;5.50;81.30;;;;;;5046414;28;19955;-75
2021/01/07 11:21:59;;;;;;;;;;;5.50;81.30;;;;;;5031912;28;19915;-76
2021/01/07 11:24:25;;;;;;;;;;;5.50;81.30;;;;;;5054867;28;20007;-76
2021/01/07 11:26:52;;;;;;;;;;;5.60;81.40;;;;;;5048126;28;20340;-78
2021/01/07 11:29:19;;;;;;;;;;;5.60;81.30;;;;;;5039994;28;19915;-76
2021/01/07 11:31:44;;;;;;;;;;;5.60;81.40;;;;;;5037356;28;19958;-76
2021/01/07 11:34:11;;;;;;;;;;;5.60;81.30;;;;;;5039104;28;20308;-76
2021/01/07 11:36:41;;;;;;;;;;;5.60;81.30;;;;;;5052927;28;19909;-75
2021/01/07 11:39:06;;;;;;;;;;;5.60;81.30;;;;;;5048390;28;19916;-77
2021/01/07 11:41:32;;;;;;;;;;;5.60;81.30;;;;;;5037114;28;19905;-75
2021/01/07 11:44:16;;;;;;;;;;;5.60;81.30;;;;;;5025940;28;19963;-76
2021/01/07 11:46:47;;;;;;;;;;;5.70;81.30;;;;;;5047293;28;19909;-76
2021/01/07 11:49:15;;;;;;;;;;;5.70;81.30;;;;;;5035359;28;19944;-78
2021/01/07 11:51:41;;;;;;;;;;;5.70;81.30;;;;;;5053441;28;19905;-77
2021/01/07 11:54:08;;;;;;;;;;;5.70;81.30;;;;;;5033298;28;19983;-83
2021/01/07 11:56:34;;;;;;;;;;;5.70;81.90;;;;;;5022923;28;19916;-75
2021/01/07 11:59:01;;;;;;;;;;;5.80;81.30;;;;;;5034538;28;19913;-76
2021/01/07 12:01:30;;;;;;;;;;;5.80;81.30;;;;;;5030753;28;19920;-79
2021/01/07 12:03:56;;;;;;;;;;;5.80;81.30;;;;;;5026212;28;19909;-75
2021/01/07 12:06:26;;;;;;;;;;;5.80;81.30;;;;;;5044115;28;20312;-75
2021/01/07 12:09:03;;;;;;;;;;;5.80;81.30;;;;;;5046564;28;19917;-76
2021/01/07 12:11:34;;;;;;;;;;;5.80;81.90;;;;;;5040246;28;19920;-76
2021/01/07 12:14:09;;;;;;;;;;;5.80;81.20;;;;;;5045674;28;19914;-77
2021/01/07 12:16:39;;;;;;;;;;;5.80;81.20;;;;;;5048341;28;19916;-76
2021/01/07 12:19:05;;;;;;;;;;;5.90;81.30;;;;;;5046997;28;20047;-75
2021/01/07 12:21:31;;;;;;;;;;;5.90;81.30;;;;;;5056070;28;19908;-78
2021/01/07 12:23:59;;;;;;;;;;;5.90;81.20;;;;;;5034567;28;19909;-76
2021/01/07 12:26:26;;;;;;;;;;;5.90;81.20;;;;;;5036113;28;20003;-76
2021/01/07 12:28:54;;;;;;;;;;;5.90;81.20;;;;;;5049382;28;20115;-75
2021/01/07 12:31:20;;;;;;;;;;;5.90;81.20;;;;;;5047458;28;19905;-76
2021/01/07 12:34:01;;;;;;;;;;;5.90;81.20;;;;;;5037313;28;20043;-77
2021/01/07 12:36:39;;;;;;;;;;;6.00;81.30;;;;;;5037933;28;19936;-77
2021/01/07 12:39:31;;;;;;;;;;;6.00;81.30;;;;;;5044400;28;19913;-77
2021/01/07 12:41:57;;;;;;;;;;;6.00;81.20;;;;;;5046139;28;20318;-78
2021/01/07 12:44:23;;;;;;;;;;;6.00;81.20;;;;;;5035485;28;19916;-77
2021/01/07 12:46:54;;;;;;;;;;;6.00;81.30;;;;;;5045121;28;20031;-77
2021/01/07 12:49:20;;;;;;;;;;;6.00;81.20;;;;;;5052116;28;19924;-77
2021/01/07 12:51:47;;;;;;;;;;;6.00;81.20;;;;;;5052341;28;19909;-78
2021/01/07 12:54:14;;;;;;;;;;;6.10;81.30;;;;;;5051878;28;19970;-79
2021/01/07 12:56:58;;;;;;;;;;;6.10;81.30;;;;;;5044126;28;19909;-77
2021/01/07 12:59:29;;;;;;;;;;;6.10;81.20;;;;;;5039209;28;19908;-76
2021/01/07 13:02:13;;;;;;;;;;;6.10;81.20;;;;;;5051100;28;19917;-76
2021/01/07 13:04:55;;;;;;;;;;;6.10;81.20;;;;;;5039446;28;19931;-76
2021/01/07 13:07:25;;;;;;;;;;;6.10;81.20;;;;;;5049512;28;19916;-75
2021/01/07 13:09:56;;;;;;;;;;;6.10;81.20;;;;;;5036681;28;19909;-78
2021/01/07 13:12:22;;;;;;;;;;;6.10;81.20;;;;;;5039960;28;19909;-75
2021/01/07 13:14:48;;;;;;;;;;;6.20;81.30;;;;;;5040271;28;19999;-76
2021/01/07 13:17:13;;;;;;;;;;;6.20;81.20;;;;;;5039319;28;19996;-75
2021/01/07 13:19:39;;;;;;;;;;;6.20;81.20;;;;;;5035909;28;19932;-76
2021/01/07 13:22:04;;;;;;;;;;;6.20;81.20;;;;;;5032426;28;19923;-76
2021/01/07 13:24:33;;;;;;;;;;;6.20;81.20;;;;;;5031191;28;19916;-75
2021/01/07 13:26:59;;;;;;;;;;;6.20;81.20;;;;;;5033170;28;19921;-76
2021/01/07 13:29:25;;;;;;;;;;;6.20;81.20;;;;;;5051429;28;20484;-75
2021/01/07 13:31:51;;;;;;;;;;;6.20;81.20;;;;;;5051655;28;19967;-77
2021/01/07 13:34:16;;;;;;;;;;;6.20;81.20;;;;;;5042472;28;19908;-79
2021/01/07 13:36:42;;;;;;;;;;;6.30;81.20;;;;;;5034913;28;19959;-76
2021/01/07 13:39:08;;;;;;;;;;;6.30;81.20;;;;;;5050859;28;20016;-77
2021/01/07 13:41:35;;;;;;;;;;;6.30;81.20;;;;;;5051589;28;20003;-77
2021/01/07 13:44:06;;;;;;;;;;;6.20;81.20;;;;;;5018843;28;19916;-77
2021/01/07 13:46:32;;;;;;;;;;;6.30;81.20;;;;;;5051504;28;20408;-78
2021/01/07 13:49:01;;;;;;;;;;;6.30;81.20;;;;;;5041558;28;20007;-76
2021/01/07 13:51:27;;;;;;;;;;;6.30;81.20;;;;;;5048851;28;19982;-76
2021/01/07 13:53:53;;;;;;;;;;;6.30;81.20;;;;;;5050541;28;19917;-77
2021/01/07 13:56:19;;;;;;;;;;;6.30;81.10;;;;;;5046820;28;19920;-78
2021/01/07 13:58:45;;;;;;;;;;;6.30;81.20;;;;;;5034461;28;19912;-77
2021/01/07 14:01:11;;;;;;;;;;;6.30;81.10;;;;;;5039066;28;20376;-77
2021/01/07 14:03:37;;;;;;;;;;;6.30;81.20;;;;;;5033412;28;20324;-77
2021/01/07 14:06:03;;;;;;;;;;;6.30;81.10;;;;;;5035847;28;20265;-77
2021/01/07 14:08:32;;;;;;;;;;;6.30;81.20;;;;;;5036065;28;20396;-76
2021/01/07 14:11:03;;;;;;;;;;;6.40;81.20;;;;;;5055105;28;20285;-77
2021/01/07 14:13:31;;;;;;;;;;;6.40;81.20;;;;;;5055221;28;20345;-77
2021/01/07 14:15:57;;;;;;;;;;;6.40;81.20;;;;;;5048329;28;19914;-76
2021/01/07 14:18:23;;;;;;;;;;;6.40;81.80;;;;;;5049561;28;19916;-78
2021/01/07 14:20:48;;;;;;;;;;;6.40;81.20;;;;;;5065778;28;19915;-76
2021/01/07 14:23:15;;;;;;;;;;;6.40;81.20;;;;;;5043790;28;19919;-77
2021/01/07 14:25:42;;;;;;;;;;;6.40;81.20;;;;;;5055194;28;20420;-77
2021/01/07 14:28:12;;;;;;;;;;;6.40;81.20;;;;;;5043434;28;19920;-76
2021/01/07 14:30:39;;;;;;;;;;;6.40;81.20;;;;;;5054977;28;19919;-76
2021/01/07 14:33:05;;;;;;;;;;;6.40;81.80;;;;;;5018986;28;19913;-77
2021/01/07 14:35:31;;;;;;;;;;;6.40;81.20;;;;;;5041002;28;19921;-76